Orofino, Idaho
Current Conditions -  °F | °C
As of 10:56 PM on Friday 28 Nov 2014 (Local Time) from KLWS Reporting Station
Overcast Overcast  
Wind Chill: 52°   Ceiling: 9500
Heat Index: 52°   Visibility: 10mi
Dew Point: 42°   Wind: 7mph
Humidity: 69%   Direction: 240°WSW
Pressure: 29.37"   Gusts: NA
Location:  46.48°N, 116.26°W
Report Text: KLWS 290656Z AUTO 24006KT 10SM FEW060 BKN095 OVC110 11/06 A2937 RMK AO2 RAB00E28 SLP942 P0000 T01110056
Loading
Personal Weather Stations






























Interactive Weather Map New forecast layout! Learn more

10-Day Weather Forecast

Advertisements
Track Severe Weather on mobile